This is the latest recevied weather packets stored in our database for station/object S59DKS-10. If no packets are shown the sender has not sent any weather packets the latest 10 day(s).
| Time | Temp. | Humidity | Pressure | Rain* | Wind** | Luminosity | Snow |
|---|---|---|---|---|---|---|---|
| 1777426639 | 13.33° C | 59% | 1018.5 hPa | - | - | - | - |
| 1777425740 | 14.44° C | 56% | 1018.5 hPa | - | - | - | - |
| 1777424841 | 14.44° C | 56% | 1018.1 hPa | - | - | - | - |
| 1777423942 | 14.44° C | 55% | 1018.6 hPa | - | - | - | - |
| 1777423043 | 14.44° C | 56% | 1018.4 hPa | - | - | - | - |
| 1777422143 | 14.44° C | 56% | 1018.8 hPa | - | - | - | - |
| 1777421244 | 14.44° C | 57% | 1018.8 hPa | - | - | - | - |
| 1777420345 | 14.44° C | 59% | 1019 hPa | - | - | - | - |
| 1777419446 | 14.44° C | 59% | 1019 hPa | - | - | - | - |
| 1777418547 | 14.44° C | 59% | 1019.3 hPa | - | - | - | - |
| 1777417654 | 14.44° C | 58% | 1019.1 hPa | - | - | - | - |
| 1777416755 | 15° C | 58% | 1019.2 hPa | - | - | - | - |
| 1777415851 | 15° C | 56% | 1019.1 hPa | - | - | - | - |
| 1777414953 | 15° C | 55% | 1019.2 hPa | - | - | - | - |
| 1777414054 | 15.56° C | 55% | 1018.9 hPa | - | - | - | - |
| 1777413152 | 15.56° C | 54% | 1019.4 hPa | - | - | - | - |
| 1777412253 | 15.56° C | 55% | 1019.1 hPa | - | - | - | - |
| 1777411353 | 15° C | 55% | 1019.4 hPa | - | - | - | - |
| 1777410454 | 14.44° C | 58% | 1019.6 hPa | - | - | - | - |
| 1777409556 | 13.89° C | 60% | 1019.5 hPa | - | - | - | - |
| 1777408657 | 16.11° C | 51% | 1019.2 hPa | - | - | - | - |
| 1777407843 | 16.67° C | 49% | 1018.9 hPa | - | - | - | - |
| 1777407757 | 16.67° C | 49% | 1018.9 hPa | - | - | - | - |
| 1777406857 | 16.67° C | 50% | 1019 hPa | - | - | - | - |
| 1777405957 | 16.67° C | 49% | 1018.8 hPa | - | - | - | - |
* Rain since midnight (hover to see other rain measurements)
** Current wind speed in m/s (hover to see current wind gust speed)